Time;durP1;ratioP1;P1;durP2;ratioP2;P2;SDS_P1;SDS_P2;PMS_P1;PMS_P2;Temp;Humidity;BMP_temperature;BMP_pressure;BME280_temperature;BME280_humidity;BME280_pressure;Samples;Min_cycle;Max_cycle;Signal;HPM_P1;HPM_P2
2023/07/26 00:01:00;;;;;;;2.15;0.80;;;;;;;-142.75;100.00;76349.81;5091309;28;20016;-66
2023/07/26 00:03:25;;;;;;;2.85;0.90;;;;;;;-142.75;100.00;76345.91;5084974;28;20025;-66
2023/07/26 00:05:51;;;;;;;2.08;0.77;;;;;;;-142.75;100.00;76345.91;5071085;28;20031;-67
2023/07/26 00:08:16;;;;;;;2.28;0.82;;;;;;;-142.75;100.00;76349.81;5071184;28;20020;-66
2023/07/26 00:10:48;;;;;;;5.38;0.85;;;;;;;-142.75;100.00;76349.81;5070737;28;20043;-67
2023/07/26 00:13:16;;;;;;;2.28;0.85;;;;;;;-142.75;100.00;76351.81;5071384;28;20021;-67
2023/07/26 00:15:41;;;;;;;2.00;0.70;;;;;;;-142.75;100.00;76365.56;5071513;28;20033;-67
2023/07/26 00:18:07;;;;;;;2.55;0.90;;;;;;;-142.75;100.00;76359.66;5071244;28;20016;-67
2023/07/26 00:20:32;;;;;;;4.97;0.85;;;;;;;-142.75;100.00;76359.66;5070812;28;20496;-67
2023/07/26 00:22:58;;;;;;;3.78;0.90;;;;;;;-142.75;100.00;76363.59;5091055;28;20016;-67
2023/07/26 00:25:23;;;;;;;2.25;0.95;;;;;;;-142.75;100.00;76365.56;5089983;28;20038;-67
2023/07/26 00:27:48;;;;;;;4.03;1.20;;;;;;;-142.75;100.00;76365.56;5091591;28;20053;-67
2023/07/26 00:30:14;;;;;;;2.90;1.10;;;;;;;-142.75;100.00;76367.53;5090425;28;20465;-66
2023/07/26 00:32:40;;;;;;;2.45;1.10;;;;;;;-142.75;100.00;76367.53;5091310;28;20456;-67
2023/07/26 00:35:06;;;;;;;2.85;0.85;;;;;;;-142.75;100.00;76361.63;5091108;28;20103;-67
2023/07/26 00:37:31;;;;;;;2.30;0.80;;;;;;;-142.75;100.00;76369.50;5091086;28;20158;-67
2023/07/26 00:39:57;;;;;;;4.57;1.10;;;;;;;-142.75;100.00;76373.44;5090048;28;20051;-67
2023/07/26 00:42:22;;;;;;;3.92;0.90;;;;;;;-142.75;100.00;76367.53;5090214;28;20031;-66
2023/07/26 00:44:47;;;;;;;4.65;0.98;;;;;;;-142.75;100.00;76369.50;5090715;28;20053;-67
2023/07/26 00:47:13;;;;;;;2.70;0.90;;;;;;;-142.75;100.00;76377.38;5075789;28;20035;-66
2023/07/26 00:49:38;;;;;;;1.67;0.73;;;;;;;-142.75;100.00;76377.38;5076129;28;20019;-67
2023/07/26 00:52:04;;;;;;;3.38;0.90;;;;;;;-142.75;100.00;76377.38;5090532;28;20038;-67
2023/07/26 00:54:30;;;;;;;2.22;0.73;;;;;;;-142.75;100.00;76375.41;5090711;28;20107;-67
2023/07/26 00:56:55;;;;;;;3.55;1.13;;;;;;;-142.75;100.00;76373.44;5083525;28;20108;-67
2023/07/26 00:59:21;;;;;;;2.53;0.90;;;;;;;-142.75;100.00;76373.44;5090519;28;20020;-67
2023/07/26 01:01:46;;;;;;;3.22;0.90;;;;;;;-142.75;100.00;76371.47;5090197;28;20024;-67
2023/07/26 01:04:11;;;;;;;5.05;1.08;;;;;;;-142.75;100.00;76373.44;5090439;28;20387;-67
2023/07/26 01:06:49;;;;;;;1.92;0.93;;;;;;;-142.75;100.00;76367.53;5078815;28;20029;-66
2023/07/26 01:09:43;;;;;;;2.78;0.85;;;;;;;-142.75;100.00;76365.56;5070249;28;20036;-67
2023/07/26 01:12:42;;;;;;;2.67;0.93;;;;;;;-142.75;100.00;76367.53;5069733;28;20081;-67
2023/07/26 01:15:10;;;;;;;2.25;0.90;;;;;;;-142.75;100.00;76385.25;5084708;28;20036;-66
2023/07/26 01:17:35;;;;;;;1.90;0.80;;;;;;;-142.75;100.00;76383.28;5090175;28;20028;-67
2023/07/26 01:20:01;;;;;;;2.75;0.90;;;;;;;-142.75;100.00;76383.28;5089808;28;20031;-67
2023/07/26 01:22:26;;;;;;;2.00;0.90;;;;;;;-142.75;100.00;76381.31;5083165;28;20024;-66
2023/07/26 01:24:52;;;;;;;1.85;0.98;;;;;;;-142.75;100.00;76383.28;5069872;28;20422;-67
2023/07/26 01:27:17;;;;;;;2.28;0.88;;;;;;;-142.75;100.00;76383.28;5075691;28;20024;-67
2023/07/26 01:29:42;;;;;;;6.32;1.35;;;;;;;-142.75;100.00;76381.31;5089762;28;20024;-67
2023/07/26 01:32:10;;;;;;;4.97;0.90;;;;;;;-142.75;100.00;76383.28;5076537;28;20511;-67
2023/07/26 01:34:36;;;;;;;2.72;0.88;;;;;;;-142.75;100.00;76383.28;5069341;28;20028;-67
2023/07/26 01:37:02;;;;;;;2.22;1.13;;;;;;;-142.75;100.00;76377.38;5069562;28;20054;-67
2023/07/26 01:39:28;;;;;;;2.92;1.10;;;;;;;-142.75;100.00;76369.50;5069376;28;20407;-67
2023/07/26 01:41:54;;;;;;;3.53;1.20;;;;;;;-142.75;100.00;76355.72;5069072;28;20028;-67
2023/07/26 01:44:20;;;;;;;2.60;1.25;;;;;;;-142.75;100.00;76359.66;5069639;28;20480;-67
2023/07/26 01:46:45;;;;;;;6.00;1.25;;;;;;;-142.75;100.00;76345.91;5069357;28;20048;-67
2023/07/26 01:49:11;;;;;;;3.97;1.60;;;;;;;-142.75;100.00;76341.97;5069187;28;20036;-67
2023/07/26 01:51:36;;;;;;;2.65;1.45;;;;;;;-142.75;100.00;76341.97;5067865;28;20016;-66
2023/07/26 01:54:01;;;;;;;2.15;1.38;;;;;;;-142.75;100.00;76338.03;5069283;28;20103;-67
2023/07/26 01:56:27;;;;;;;7.45;1.27;;;;;;;-142.75;100.00;76324.25;5068944;28;20361;-66
2023/07/26 01:58:52;;;;;;;3.55;1.50;;;;;;;-142.75;100.00;76322.28;5069176;28;20016;-66
2023/07/26 02:01:18;;;;;;;2.15;1.35;;;;;;;-142.75;100.00;76310.47;5068906;28;20024;-67
2023/07/26 02:03:43;;;;;;;2.97;1.27;;;;;;;-142.75;100.00;76310.47;5068962;28;20500;-67
2023/07/26 02:06:08;;;;;;;3.53;0.95;;;;;;;-142.75;100.00;76306.53;5069055;28;20198;-66
2023/07/26 02:08:34;;;;;;;3.03;1.10;;;;;;;-142.75;100.00;76322.28;5068857;28;20031;-67
2023/07/26 02:10:59;;;;;;;2.75;1.58;;;;;;;-142.75;100.00;76345.91;5069926;28;20055;-67
2023/07/26 02:13:24;;;;;;;2.67;1.40;;;;;;;-142.75;100.00;76353.78;5067560;28;20032;-67
2023/07/26 02:15:50;;;;;;;2.40;1.05;;;;;;;-142.75;100.00;76343.94;5069018;28;20115;-67
2023/07/26 02:18:15;;;;;;;1.92;0.90;;;;;;;-142.75;100.00;76353.78;5081491;28;20036;-67
2023/07/26 02:20:40;;;;;;;2.35;1.30;;;;;;;-142.75;100.00;76357.69;5088968;28;20016;-67
2023/07/26 02:23:06;;;;;;;4.22;0.95;;;;;;;-142.75;100.00;76367.53;5089066;28;20402;-66
2023/07/26 02:25:31;;;;;;;2.33;1.23;;;;;;;-142.75;100.00;76357.69;5088957;28;20497;-66
2023/07/26 02:27:56;;;;;;;3.25;0.70;;;;;;;-142.75;100.00;76357.69;5088847;28;20103;-67
2023/07/26 02:30:22;;;;;;;2.60;1.13;;;;;;;-142.75;100.00;76345.91;5088359;28;20054;-66
2023/07/26 02:32:47;;;;;;;2.30;1.20;;;;;;;-142.75;100.00;76355.72;5089130;28;20027;-67
2023/07/26 02:35:12;;;;;;;3.78;1.20;;;;;;;-142.75;100.00;76353.78;5087202;28;20115;-67
2023/07/26 02:37:38;;;;;;;2.92;1.52;;;;;;;-142.75;100.00;76353.78;5087933;28;20030;-67
2023/07/26 02:40:04;;;;;;;3.20;1.75;;;;;;;-142.75;100.00;76367.53;5068263;28;20085;-67
2023/07/26 02:42:29;;;;;;;3.85;1.40;;;;;;;-142.75;100.00;76363.59;5068373;28;20488;-67
2023/07/26 02:44:55;;;;;;;3.88;1.50;;;;;;;-142.75;100.00;76353.78;5069671;28;20030;-67
2023/07/26 02:47:20;;;;;;;2.03;1.20;;;;;;;-142.75;100.00;76349.81;5088582;28;20042;-66
2023/07/26 02:49:46;;;;;;;6.18;2.28;;;;;;;-142.75;100.00;76349.81;5088454;28;20441;-67
2023/07/26 02:52:11;;;;;;;3.30;1.60;;;;;;;-142.75;100.00;76338.03;5088201;28;20028;-67
2023/07/26 02:54:37;;;;;;;2.78;1.60;;;;;;;-142.75;100.00;76345.91;5080238;28;20020;-67
2023/07/26 02:57:02;;;;;;;2.60;1.70;;;;;;;-142.75;100.00;76341.97;5088637;28;20035;-67
2023/07/26 02:59:28;;;;;;;3.38;1.83;;;;;;;-142.75;100.00;76349.81;5086955;28;20016;-66
2023/07/26 03:01:53;;;;;;;2.47;1.50;;;;;;;-142.75;100.00;76347.84;5086027;28;20791;-66
2023/07/26 03:04:18;;;;;;;2.97;1.77;;;;;;;-142.75;100.00;76355.72;5088222;28;20028;-67
2023/07/26 03:06:44;;;;;;;3.42;1.75;;;;;;;-142.75;100.00;76357.69;5087052;28;20020;-67
2023/07/26 03:09:09;;;;;;;3.85;1.88;;;;;;;-142.75;100.00;76387.22;5088142;28;20483;-66
2023/07/26 03:11:35;;;;;;;3.20;1.73;;;;;;;-142.75;100.00;76371.47;5088069;28;20042;-67
2023/07/26 03:14:01;;;;;;;4.28;1.88;;;;;;;-142.75;100.00;76375.41;5079641;28;20016;-67
2023/07/26 03:16:26;;;;;;;3.22;1.80;;;;;;;-142.75;100.00;76381.31;5068096;28;20024;-66
2023/07/26 03:18:52;;;;;;;2.22;1.23;;;;;;;-142.75;100.00;76399.03;5068133;28;20025;-67
2023/07/26 03:21:17;;;;;;;3.05;1.65;;;;;;;-142.75;100.00;76406.91;5067850;28;20383;-66
2023/07/26 03:23:42;;;;;;;4.90;1.63;;;;;;;-142.75;100.00;76391.16;5068090;28;20052;-66
2023/07/26 03:26:08;;;;;;;3.20;1.60;;;;;;;-142.75;100.00;76391.16;5067895;28;20510;-67
2023/07/26 03:28:33;;;;;;;5.28;2.35;;;;;;;-142.75;100.00;76397.06;5068151;28;20032;-67
2023/07/26 03:31:00;;;;;;;5.57;2.13;;;;;;;-142.75;100.00;76401.00;5067777;28;20605;-67
2023/07/26 03:33:25;;;;;;;3.22;1.83;;;;;;;-142.75;100.00;76412.81;5066901;28;20612;-66
2023/07/26 03:35:51;;;;;;;4.72;2.20;;;;;;;-142.75;100.00;76408.88;5067782;28;20102;-67
2023/07/26 03:38:16;;;;;;;3.17;2.13;;;;;;;-142.75;100.00;76408.88;5067731;28;20021;-66
2023/07/26 03:40:42;;;;;;;3.17;1.55;;;;;;;-142.75;100.00;76416.75;5067376;28;20115;-67
2023/07/26 03:43:07;;;;;;;2.92;1.52;;;;;;;-142.75;100.00;76404.94;5067970;28;20071;-67
2023/07/26 03:45:33;;;;;;;5.90;1.60;;;;;;;-142.75;100.00;76401.00;5068169;28;20527;-67
2023/07/26 03:47:59;;;;;;;3.60;1.90;;;;;;;-142.75;100.00;76397.06;5079887;28;20031;-67
2023/07/26 03:50:25;;;;;;;3.35;2.03;;;;;;;-142.75;100.00;76401.00;5086334;28;20568;-67
2023/07/26 03:52:50;;;;;;;2.80;1.88;;;;;;;-142.75;100.00;76397.06;5086451;28;20537;-67
2023/07/26 03:55:16;;;;;;;3.20;1.73;;;;;;;-142.75;100.00;76397.06;5087984;28;20047;-66
2023/07/26 03:57:41;;;;;;;5.38;2.28;;;;;;;-142.75;100.00;76401.00;5083210;28;20044;-67
2023/07/26 04:00:08;;;;;;;4.57;2.28;;;;;;;-142.75;100.00;76402.97;5077023;28;20051;-66
2023/07/26 04:02:34;;;;;;;5.38;2.20;;;;;;;-142.75;100.00;76404.94;5087802;28;20028;-67
2023/07/26 04:04:59;;;;;;;5.80;2.30;;;;;;;-142.75;100.00;76393.13;5085434;28;20031;-67
2023/07/26 04:07:24;;;;;;;5.70;2.28;;;;;;;-142.75;100.00;76393.13;5067840;28;20123;-67
2023/07/26 04:09:50;;;;;;;6.43;2.80;;;;;;;-142.75;100.00;76391.16;5067471;28;20491;-66
2023/07/26 04:12:15;;;;;;;6.50;2.97;;;;;;;-142.75;100.00;76399.03;5067299;28;20025;-67
2023/07/26 04:14:41;;;;;;;5.07;2.30;;;;;;;-142.75;100.00;76371.47;5084730;28;20099;-66
2023/07/26 04:17:06;;;;;;;6.05;2.72;;;;;;;-142.75;100.00;76357.69;5089853;28;20028;-66
2023/07/26 04:19:32;;;;;;;6.07;2.83;;;;;;;-142.75;100.00;76355.72;5071124;28;20031;-67
2023/07/26 04:21:57;;;;;;;5.15;2.83;;;;;;;-142.75;100.00;76343.94;5075017;28;20020;-66
2023/07/26 04:24:23;;;;;;;5.05;3.00;;;;;;;-142.75;100.00;76361.63;5076596;28;20432;-67
2023/07/26 04:26:49;;;;;;;6.65;2.90;;;;;;;-142.75;100.00;76353.78;5072911;28;20430;-66
2023/07/26 04:29:14;;;;;;;5.68;3.08;;;;;;;-142.75;100.00;76353.78;5070593;28;20120;-66
2023/07/26 04:31:40;;;;;;;10.50;3.83;;;;;;;-142.75;100.00;76365.56;5070620;28;20395;-66
2023/07/26 04:34:05;;;;;;;8.88;4.47;;;;;;;-142.75;100.00;76351.81;5069275;28;20083;-66
2023/07/26 04:36:30;;;;;;;11.05;4.32;;;;;;;-142.75;100.00;76334.09;5070785;28;20032;-67
2023/07/26 04:38:56;;;;;;;9.95;4.80;;;;;;;-142.75;100.00;76314.41;5070599;28;20039;-67
2023/07/26 04:41:21;;;;;;;10.52;5.18;;;;;;;-142.75;100.00;76308.50;5070417;28;20492;-67
2023/07/26 04:43:46;;;;;;;10.52;4.50;;;;;;;-142.75;100.00;76286.84;5070974;28;20426;-66
2023/07/26 04:46:12;;;;;;;10.68;5.25;;;;;;;-142.75;100.00;76296.69;5070628;28;20052;-67
2023/07/26 04:48:37;;;;;;;7.40;4.60;;;;;;;-142.75;100.00;76273.06;5070555;28;20082;-67
2023/07/26 04:51:02;;;;;;;11.43;5.05;;;;;;;-142.75;100.00;76253.38;5078882;28;20020;-66
2023/07/26 04:53:28;;;;;;;7.85;4.80;;;;;;;-142.75;100.00;76239.59;5090605;28;20024;-66
2023/07/26 04:55:56;;;;;;;9.35;4.68;;;;;;;-142.75;100.00;76219.91;5090656;28;20028;-67
2023/07/26 04:58:21;;;;;;;11.40;6.00;;;;;;;-142.75;100.00;76223.84;5090452;28;20379;-67
2023/07/26 05:00:47;;;;;;;8.55;4.90;;;;;;;-142.75;100.00;76208.09;5082906;28;20016;-67
2023/07/26 05:03:12;;;;;;;12.23;5.53;;;;;;;-142.75;100.00;76184.50;5069096;28;20027;-66
2023/07/26 05:05:39;;;;;;;13.15;5.47;;;;;;;-142.75;100.00;76176.63;5070154;28;20052;-67
2023/07/26 05:08:05;;;;;;;13.82;6.20;;;;;;;-142.75;100.00;76188.44;5076511;28;20035;-66
2023/07/26 05:10:31;;;;;;;12.65;5.65;;;;;;;-142.75;100.00;76184.50;5070177;28;20671;-67
2023/07/26 05:12:57;;;;;;;10.63;5.72;;;;;;;-142.75;100.00;76180.56;5077016;28;20025;-67
2023/07/26 05:15:22;;;;;;;12.45;5.97;;;;;;;-142.75;100.00;76192.38;5070108;28;20020;-67
2023/07/26 05:17:50;;;;;;;16.25;6.55;;;;;;;-142.75;100.00;76194.34;5070229;28;20027;-67
2023/07/26 05:20:15;;;;;;;13.50;6.40;;;;;;;-142.75;100.00;76192.38;5072711;28;20651;-67
2023/07/26 05:22:40;;;;;;;14.05;6.63;;;;;;;-142.75;100.00;76184.50;5090121;28;20110;-66
2023/07/26 05:25:06;;;;;;;11.25;6.75;;;;;;;-142.75;100.00;76184.50;5088387;28;20051;-67
2023/07/26 05:27:32;;;;;;;12.85;6.53;;;;;;;-142.75;100.00;76178.59;5090160;28;20103;-66
2023/07/26 05:29:58;;;;;;;11.85;6.07;;;;;;;-142.75;100.00;76166.78;5089631;28;20051;-66
2023/07/26 05:32:24;;;;;;;12.30;5.80;;;;;;;-142.75;100.00;76176.63;5072273;28;20023;-66
2023/07/26 05:34:53;;;;;;;13.52;6.30;;;;;;;-142.75;100.00;76178.59;5069846;28;20032;-66
2023/07/26 05:37:19;;;;;;;10.55;5.65;;;;;;;-142.75;100.00;76188.44;5069294;28;20058;-66
2023/07/26 05:39:44;;;;;;;9.88;5.70;;;;;;;-142.75;100.00;76196.31;5085202;28;20044;-67
2023/07/26 05:42:09;;;;;;;9.90;5.25;;;;;;;-142.75;100.00;76188.44;5088109;28;20024;-66
2023/07/26 05:44:35;;;;;;;13.25;4.70;;;;;;;-142.75;100.00;76194.34;5082659;28;20107;-67
2023/07/26 05:47:00;;;;;;;9.82;4.82;;;;;;;-142.75;100.00;76192.38;5089565;28;20023;-66
2023/07/26 05:49:25;;;;;;;10.30;4.50;;;;;;;-142.75;100.00;76184.50;5089330;28;20020;-66
2023/07/26 05:51:51;;;;;;;9.63;4.03;;;;;;;-142.75;100.00;76196.31;5089324;28;20049;-67
2023/07/26 05:54:16;;;;;;;8.48;3.65;;;;;;;-142.75;100.00;76204.16;5089485;28;20045;-66
2023/07/26 05:56:41;;;;;;;5.70;2.83;;;;;;;-142.75;100.00;76221.88;5071283;28;20024;-66
2023/07/26 05:59:07;;;;;;;5.55;2.85;;;;;;;-142.75;100.00;76255.34;5069291;28;20023;-67
2023/07/26 06:01:32;;;;;;;5.22;2.75;;;;;;;-142.75;100.00;76263.22;5068841;28;20060;-66
2023/07/26 06:03:57;;;;;;;7.57;2.70;;;;;;;-142.75;100.00;76282.91;5068934;28;20059;-67
2023/07/26 06:06:23;;;;;;;7.35;2.58;;;;;;;-142.75;100.00;76271.09;5068990;28;20108;-66
2023/07/26 06:08:50;;;;;;;9.13;2.88;;;;;;;-142.75;100.00;76267.16;5068833;28;20047;-66
2023/07/26 06:11:16;;;;;;;6.85;3.22;;;;;;;-142.75;100.00;76259.28;5068556;28;20028;-67
2023/07/26 06:13:41;;;;;;;6.00;3.28;;;;;;;-142.75;100.00;76278.97;5068959;28;20021;-66
2023/07/26 06:16:07;;;;;;;5.97;2.78;;;;;;;-142.75;100.00;76263.22;5068855;28;20108;-67
2023/07/26 06:18:32;;;;;;;6.72;2.83;;;;;;;-142.75;100.00;76249.44;5070678;28;20100;-66
2023/07/26 06:20:58;;;;;;;10.20;2.78;;;;;;;-142.75;100.00;76259.28;5080477;28;20028;-66
2023/07/26 06:23:23;;;;;;;9.00;2.63;;;;;;;-142.75;100.00;76255.34;5068761;28;20020;-66
2023/07/26 06:25:49;;;;;;;4.18;1.90;;;;;;;-142.75;100.00;76247.47;5067680;28;20025;-66
2023/07/26 06:28:15;;;;;;;4.40;2.35;;;;;;;-142.75;100.00;76247.47;5068952;28;20537;-66
2023/07/26 06:30:40;;;;;;;8.38;2.97;;;;;;;-142.75;100.00;76231.72;5076946;28;20047;-65
2023/07/26 06:33:05;;;;;;;7.57;2.58;;;;;;;-142.75;100.00;76235.66;5088236;28;20024;-65
2023/07/26 06:35:31;;;;;;;4.80;2.42;;;;;;;-142.75;100.00;76231.72;5087899;28;20510;-66
2023/07/26 06:37:57;;;;;;;5.22;2.35;;;;;;;-142.75;100.00;76198.28;5087176;28;20181;-66
2023/07/26 06:40:22;;;;;;;7.90;2.58;;;;;;;-142.75;100.00;76194.34;5087702;28;20767;-66
2023/07/26 06:42:48;;;;;;;5.35;2.42;;;;;;;-142.75;100.00;76158.91;5069506;28;20475;-66
2023/07/26 06:45:13;;;;;;;6.03;2.65;;;;;;;-142.75;100.00;76143.16;5085675;28;20507;-66
2023/07/26 06:47:38;;;;;;;5.68;2.50;;;;;;;-142.75;100.00;76125.44;5087785;28;20531;-66
2023/07/26 06:50:04;;;;;;;6.78;2.08;;;;;;;-142.75;100.00;76129.38;5077208;28;20246;-66
2023/07/26 06:52:30;;;;;;;7.05;2.40;;;;;;;-142.75;100.00;76090.00;5069587;28;20054;-67
2023/07/26 06:54:56;;;;;;;5.00;2.03;;;;;;;-142.75;100.00;76074.25;5071374;28;20047;-67
2023/07/26 06:57:21;;;;;;;9.02;2.80;;;;;;;-142.75;100.00;76064.44;5079395;28;20020;-67
2023/07/26 06:59:46;;;;;;;7.05;1.90;;;;;;;-142.75;100.00;76027.03;5074445;28;20142;-67
2023/07/26 07:02:12;;;;;;;5.28;1.92;;;;;;;-142.75;100.00;76011.28;5068568;28;20052;-67
2023/07/26 07:04:37;;;;;;;4.03;2.17;;;;;;;-142.75;100.00;76015.22;5072244;28;20475;-66
2023/07/26 07:07:02;;;;;;;3.65;2.15;;;;;;;-142.75;100.00;76030.97;5073015;28;20032;-67
2023/07/26 07:09:28;;;;;;;4.13;1.90;;;;;;;-142.75;100.00;76017.19;5081337;28;20017;-67
2023/07/26 07:11:54;;;;;;;5.15;1.95;;;;;;;-142.75;100.00;75975.84;5081802;28;20081;-67
2023/07/26 07:14:20;;;;;;;4.93;1.80;;;;;;;-142.75;100.00;75967.97;5084517;28;20039;-66
2023/07/26 07:16:45;;;;;;;3.70;1.70;;;;;;;-142.75;100.00;75946.34;5085932;28;20169;-66
2023/07/26 07:19:11;;;;;;;4.05;2.08;;;;;;;-142.75;100.00;75952.25;5082707;28;20037;-66
2023/07/26 07:21:36;;;;;;;4.32;1.70;;;;;;;-142.75;100.00;75971.91;5081005;28;20020;-67
2023/07/26 07:24:02;;;;;;;5.25;1.95;;;;;;;-142.75;100.00;75975.84;5082712;28;20012;-67
2023/07/26 07:26:27;;;;;;;4.82;1.88;;;;;;;-142.75;100.00;75967.97;5083425;28;20166;-67
2023/07/26 07:28:53;;;;;;;4.32;1.60;;;;;;;-142.75;100.00;75936.50;5077319;28;20622;-66
2023/07/26 07:31:18;;;;;;;6.93;2.17;;;;;;;-142.75;100.00;75893.19;5078589;28;20475;-67
2023/07/26 07:33:43;;;;;;;4.47;1.65;;;;;;;-142.75;100.00;75903.03;5080213;28;20074;-67
2023/07/26 07:36:10;;;;;;;3.50;1.67;;;;;;;-142.75;100.00;75879.41;5080305;28;20108;-67
2023/07/26 07:38:35;;;;;;;8.85;2.42;;;;;;;-142.75;100.00;75871.53;5083930;28;20429;-67
2023/07/26 07:41:01;;;;;;;5.28;1.90;;;;;;;-142.75;100.00;75861.69;5080185;28;20116;-67
2023/07/26 07:43:26;;;;;;;6.35;2.42;;;;;;;-142.75;100.00;75851.88;5080041;28;20368;-67
2023/07/26 07:45:51;;;;;;;3.85;2.05;;;;;;;-142.75;100.00;75853.84;5077844;28;20514;-67
2023/07/26 07:48:17;;;;;;;7.07;2.15;;;;;;;-142.75;100.00;75849.91;5082238;28;20028;-67
2023/07/26 07:50:42;;;;;;;7.10;2.45;;;;;;;-142.75;100.00;75932.56;5087693;28;20051;-67
2023/07/26 07:53:07;;;;;;;3.92;2.15;;;;;;;-142.75;100.00;75940.44;5079665;28;20077;-67
2023/07/26 07:55:37;;;;;;;4.63;2.00;;;;;;;-142.75;100.00;75934.53;5071637;28;20411;-67
2023/07/26 07:58:04;;;;;;;7.07;2.00;;;;;;;-142.75;100.00;75954.22;5068574;28;20093;-67
2023/07/26 08:00:29;;;;;;;4.45;2.45;;;;;;;-142.75;100.00;75946.34;5070504;28;20032;-66
2023/07/26 08:02:55;;;;;;;5.32;2.42;;;;;;;-142.75;100.00;75920.75;5074724;28;20024;-66
2023/07/26 08:05:20;;;;;;;3.72;1.73;;;;;;;-142.75;100.00;75893.19;5075476;28;20094;-67
2023/07/26 08:07:46;;;;;;;5.32;2.00;;;;;;;-142.75;100.00;75853.84;5077527;28;20016;-67
2023/07/26 08:10:11;;;;;;;3.63;2.13;;;;;;;-142.75;100.00;75826.28;5074835;28;20731;-68
2023/07/26 08:12:36;;;;;;;6.07;2.40;;;;;;;-142.75;100.00;75865.63;5077228;28;20458;-67
2023/07/26 08:15:02;;;;;;;5.20;1.95;;;;;;;-142.75;100.00;75893.19;5076966;28;20468;-68
2023/07/26 08:17:27;;;;;;;6.32;2.45;;;;;;;-142.75;100.00;75834.16;5080800;28;20735;-68
2023/07/26 08:19:53;;;;;;;5.20;2.15;;;;;;;-142.75;100.00;75802.66;5080977;28;20274;-68
2023/07/26 08:22:18;;;;;;;4.32;1.85;;;;;;;-142.75;100.00;75826.28;5070183;28;20016;-65
2023/07/26 08:24:44;;;;;;;3.10;1.73;;;;;;;-142.75;100.00;75842.03;5070571;28;20028;-65
2023/07/26 08:27:09;;;;;;;4.85;1.90;;;;;;;-142.75;100.00;75881.38;5070582;28;20089;-66
2023/07/26 08:29:34;;;;;;;5.78;1.90;;;;;;;-142.75;100.00;75910.91;5069184;28;20357;-66
2023/07/26 08:31:59;;;;;;;3.53;2.00;;;;;;;-142.75;100.00;75867.59;5069836;28;20415;-66
2023/07/26 08:34:25;;;;;;;3.13;1.60;;;;;;;-142.75;100.00;75826.28;5069768;28;20186;-64
2023/07/26 08:36:50;;;;;;;11.68;2.55;;;;;;;-142.75;100.00;75802.66;5070367;28;20103;-66
2023/07/26 08:39:15;;;;;;;3.92;2.10;;;;;;;-142.75;100.00;75840.06;5070079;28;20117;-67
2023/07/26 08:41:41;;;;;;;3.85;1.92;;;;;;;-142.75;100.00;75857.78;5069616;28;20491;-66
2023/07/26 08:44:09;;;;;;;5.03;1.75;;;;;;;-142.75;100.00;75885.31;5068435;28;20040;-67
2023/07/26 08:46:38;;;;;;;4.18;2.30;;;;;;;-142.75;100.00;75910.91;5071826;28;20384;-66
2023/07/26 08:49:03;;;;;;;6.40;2.00;;;;;;;-142.75;100.00;75918.78;5070348;28;20479;-67
2023/07/26 08:51:30;;;;;;;5.40;2.60;;;;;;;-142.75;100.00;75869.56;5072401;28;20024;-66
2023/07/26 08:53:56;;;;;;;4.05;2.03;;;;;;;-142.75;100.00;75869.56;5071255;28;20109;-66
2023/07/26 08:56:23;;;;;;;6.97;1.95;;;;;;;-142.75;100.00;75849.91;5070730;28;20029;-66
2023/07/26 08:58:48;;;;;;;3.65;2.08;;;;;;;-142.75;100.00;75865.63;5071998;28;20032;-66
2023/07/26 09:01:14;;;;;;;8.38;2.50;;;;;;;-142.75;100.00;75877.44;5070454;28;20023;-67
2023/07/26 09:03:40;;;;;;;2.95;1.90;;;;;;;-142.75;100.00;75834.16;5070810;28;20062;-66
2023/07/26 09:06:08;;;;;;;4.30;2.03;;;;;;;-142.75;98.71;75802.66;5074300;28;20024;-67
2023/07/26 09:08:33;;;;;;;4.45;1.77;;;;;;;-142.75;92.23;75782.97;5075169;28;20481;-67
2023/07/26 09:11:01;;;;;;;6.40;2.17;;;;;;;-142.75;90.35;75763.28;5072567;28;20048;-69
2023/07/26 09:13:27;;;;;;;4.78;1.60;;;;;;;-142.75;91.64;75729.84;5075704;28;20581;-68
2023/07/26 09:15:52;;;;;;;4.30;2.13;;;;;;;-142.75;91.19;75718.03;5071592;28;20103;-68
2023/07/26 09:18:17;;;;;;;4.05;2.03;;;;;;;-142.75;86.99;75702.28;5068632;28;20012;-68
2023/07/26 09:20:43;;;;;;;3.65;1.77;;;;;;;-142.75;85.50;75690.47;5069733;28;20021;-66
2023/07/26 09:23:11;;;;;;;5.07;1.70;;;;;;;-142.75;85.48;75696.38;5069958;28;20024;-66
2023/07/26 09:25:44;;;;;;;3.33;1.70;;;;;;;-142.75;85.70;75674.72;5072343;28;20498;-67
2023/07/26 09:28:14;;;;;;;3.83;1.77;;;;;;;-142.75;86.72;75688.50;5069939;28;20024;-67
2023/07/26 09:30:50;;;;;;;5.88;1.95;;;;;;;-142.75;87.55;75672.78;5069318;28;20585;-66
2023/07/26 09:33:16;;;;;;;7.78;1.90;;;;;;;-142.75;89.57;75627.50;5071552;28;20542;-67
2023/07/26 09:35:43;;;;;;;2.38;1.45;;;;;;;-142.75;81.89;75676.69;5076705;28;20020;-65
2023/07/26 09:38:13;;;;;;;3.70;1.27;;;;;;;-142.75;82.90;75678.66;5073505;28;20024;-64
2023/07/26 09:40:39;;;;;;;6.10;2.22;;;;;;;-142.75;85.77;75641.28;5073682;28;20043;-65
2023/07/26 09:43:04;;;;;;;4.78;2.10;;;;;;;-142.75;88.28;75609.78;5073897;28;20560;-66
2023/07/26 09:45:30;;;;;;;2.75;1.52;;;;;;;-142.75;85.68;75605.84;5089400;28;20035;-65
2023/07/26 09:48:07;;;;;;;4.40;1.48;;;;;;;-142.75;81.73;75570.44;5088607;28;20405;-64
2023/07/26 09:50:32;;;;;;;4.57;1.70;;;;;;;-142.75;81.66;75633.41;5073939;28;20028;-65
2023/07/26 09:52:58;;;;;;;5.82;1.83;;;;;;;-142.75;83.48;75653.09;5071699;28;20089;-65
2023/07/26 09:55:25;;;;;;;4.03;1.60;;;;;;;-142.75;85.44;75629.47;5076795;28;20016;-65
2023/07/26 09:57:53;;;;;;;4.47;2.00;;;;;;;-142.75;86.23;75582.25;5089529;28;20473;-65
2023/07/26 10:00:19;;;;;;;5.25;1.80;;;;;;;-142.75;82.96;75544.84;5089297;28;20045;-64
2023/07/26 10:03:01;;;;;;;5.68;1.77;;;;;;;-142.75;76.13;75556.66;5089152;28;20031;-67
2023/07/26 10:05:30;;;;;;;4.75;1.70;;;;;;;-142.75;78.43;75515.31;5089079;28;20020;-67
2023/07/26 10:07:55;;;;;;;5.30;1.98;;;;;;;-142.75;78.56;75511.41;5069319;28;20024;-67
2023/07/26 10:10:22;;;;;;;4.15;1.77;;;;;;;-142.75;76.84;75491.72;5068192;28;20036;-66
2023/07/26 10:12:50;;;;;;;4.45;1.63;;;;;;;-142.75;76.79;75572.41;5068094;28;20097;-66
2023/07/26 10:15:16;;;;;;;3.47;1.77;;;;;;;-142.75;78.44;75686.53;5068941;28;20096;-66
2023/07/26 10:17:47;;;;;;;6.88;1.85;;;;;;;-142.75;82.78;75617.66;5068861;28;20120;-65
2023/07/26 10:20:12;;;;;;;6.00;2.20;;;;;;;-142.75;82.63;75613.72;5068705;28;20036;-65
2023/07/26 10:22:39;;;;;;;4.95;1.80;;;;;;;-142.75;82.96;75560.59;5068669;28;20052;-65
2023/07/26 10:25:05;;;;;;;6.25;1.63;;;;;;;-142.75;78.38;75546.81;5069034;28;20025;-66
2023/07/26 10:27:31;;;;;;;5.53;1.67;;;;;;;-142.75;75.47;75550.75;5068548;28;20031;-66
2023/07/26 10:29:56;;;;;;;2.95;1.63;;;;;;;-142.75;76.34;75550.75;5068716;28;20012;-66
2023/07/26 10:32:22;;;;;;;5.53;1.75;;;;;;;-142.75;76.12;75495.66;5068326;28;20021;-66
2023/07/26 10:34:55;;;;;;;3.13;1.48;;;;;;;-142.75;75.86;75440.53;5068955;28;20020;-65
2023/07/26 10:37:21;;;;;;;3.72;1.75;;;;;;;-142.75;75.08;75416.94;5068688;28;20036;-65
2023/07/26 10:39:48;;;;;;;4.65;1.90;;;;;;;-142.75;76.60;75385.44;5068530;28;20012;-64
2023/07/26 10:42:40;;;;;;;4.20;1.88;;;;;;;-142.75;75.67;75353.97;5066927;28;20020;-64
2023/07/26 10:45:40;;;;;;;4.95;1.75;;;;;;;-142.75;72.40;75377.56;5068199;28;20028;-66
2023/07/26 10:48:14;;;;;;;3.42;1.40;;;;;;;-142.75;71.13;75389.38;5068668;28;20045;-65
2023/07/26 10:50:40;;;;;;;3.47;1.42;;;;;;;-142.75;73.46;75375.59;5068142;28;20024;-66
2023/07/26 10:53:36;;;;;;;3.63;1.52;;;;;;;-142.75;72.77;75375.59;5068663;28;20019;-66
2023/07/26 10:56:12;;;;;;;4.10;1.60;;;;;;;-142.75;72.86;75369.69;5068334;28;20044;-65
2023/07/26 10:59:05;;;;;;;5.97;1.70;;;;;;;-142.75;72.50;75403.16;5067045;28;20524;-65
2023/07/26 11:01:41;;;;;;;4.15;1.52;;;;;;;-142.75;72.41;75448.41;5068148;28;20051;-66
2023/07/26 11:04:20;;;;;;;5.43;1.80;;;;;;;-142.75;72.95;75434.66;5068429;28;20022;-66
2023/07/26 11:06:52;;;;;;;2.58;1.40;;;;;;;-142.75;73.10;75436.59;5067122;28;20032;-66